Terminal Aerodrome Forecast
Issued by NWS Wilmington, NC

Home | Current Version | Previous Version | Text Only | Print | Product List | Glossary On
Versions: 1 2 3 4 5 6 7 8 9 10 11 12 13 14
000
FTUS42 KILM 291700
TAFMYR
TAF
KMYR 291740Z 2918/3018 03009KT P6SM BKN045 BKN090
     FM292000 13009KT P6SM SCT050 SCT090
     FM300100 VRB02KT P6SM FEW060
     FM301400 06008KT P6SM SCT040=

USA.gov is the U.S. government's official web portal to all federal, state and local government web resources and services.